sensor_id;sensor_type;location;lat;lon;timestamp;P1;durP1;ratioP1;P2;durP2;ratioP2
14096;SDS011;7125;48.106;11.544;2022-11-03T00:01:11;5.03;;;3.40;;
14096;SDS011;7125;48.106;11.544;2022-11-03T00:03:38;3.67;;;3.03;;
14096;SDS011;7125;48.106;11.544;2022-11-03T00:06:05;8.47;;;3.73;;
14096;SDS011;7125;48.106;11.544;2022-11-03T00:08:34;8.87;;;4.90;;
14096;SDS011;7125;48.106;11.544;2022-11-03T00:11:03;8.93;;;3.90;;
14096;SDS011;7125;48.106;11.544;2022-11-03T00:13:32;6.83;;;5.40;;
14096;SDS011;7125;48.106;11.544;2022-11-03T00:15:59;4.63;;;3.93;;
14096;SDS011;7125;48.106;11.544;2022-11-03T00:18:26;5.70;;;3.17;;
14096;SDS011;7125;48.106;11.544;2022-11-03T00:20:55;7.37;;;4.87;;
14096;SDS011;7125;48.106;11.544;2022-11-03T00:23:26;7.47;;;3.93;;
14096;SDS011;7125;48.106;11.544;2022-11-03T00:25:55;5.93;;;4.60;;
14096;SDS011;7125;48.106;11.544;2022-11-03T00:28:29;7.27;;;3.57;;
14096;SDS011;7125;48.106;11.544;2022-11-03T00:30:57;8.90;;;3.50;;
14096;SDS011;7125;48.106;11.544;2022-11-03T00:33:25;7.43;;;4.87;;
14096;SDS011;7125;48.106;11.544;2022-11-03T00:35:56;6.37;;;4.13;;
14096;SDS011;7125;48.106;11.544;2022-11-03T00:38:23;3.93;;;3.47;;
14096;SDS011;7125;48.106;11.544;2022-11-03T00:40:53;8.70;;;4.30;;
14096;SDS011;7125;48.106;11.544;2022-11-03T00:43:22;8.67;;;3.37;;
14096;SDS011;7125;48.106;11.544;2022-11-03T00:45:51;5.93;;;3.90;;
14096;SDS011;7125;48.106;11.544;2022-11-03T00:48:18;9.33;;;5.40;;
14096;SDS011;7125;48.106;11.544;2022-11-03T00:50:59;7.13;;;5.50;;
14096;SDS011;7125;48.106;11.544;2022-11-03T00:53:26;5.70;;;3.53;;
14096;SDS011;7125;48.106;11.544;2022-11-03T00:55:54;5.93;;;3.40;;
14096;SDS011;7125;48.106;11.544;2022-11-03T00:58:22;5.27;;;3.83;;
14096;SDS011;7125;48.106;11.544;2022-11-03T01:00:49;8.67;;;4.70;;
14096;SDS011;7125;48.106;11.544;2022-11-03T01:03:16;4.20;;;3.77;;
14096;SDS011;7125;48.106;11.544;2022-11-03T01:05:43;4.73;;;3.10;;
14096;SDS011;7125;48.106;11.544;2022-11-03T01:08:31;4.93;;;3.90;;
14096;SDS011;7125;48.106;11.544;2022-11-03T01:11:06;4.33;;;3.70;;
14096;SDS011;7125;48.106;11.544;2022-11-03T01:13:52;6.30;;;4.00;;
14096;SDS011;7125;48.106;11.544;2022-11-03T01:16:19;8.80;;;4.27;;
14096;SDS011;7125;48.106;11.544;2022-11-03T01:18:48;7.13;;;3.97;;
14096;SDS011;7125;48.106;11.544;2022-11-03T01:21:15;5.87;;;3.83;;
14096;SDS011;7125;48.106;11.544;2022-11-03T01:23:45;6.17;;;4.07;;
14096;SDS011;7125;48.106;11.544;2022-11-03T01:26:14;7.40;;;4.03;;
14096;SDS011;7125;48.106;11.544;2022-11-03T01:28:42;5.90;;;4.27;;
14096;SDS011;7125;48.106;11.544;2022-11-03T01:31:11;8.40;;;4.30;;
14096;SDS011;7125;48.106;11.544;2022-11-03T01:33:40;4.60;;;3.80;;
14096;SDS011;7125;48.106;11.544;2022-11-03T01:36:09;8.90;;;4.47;;
14096;SDS011;7125;48.106;11.544;2022-11-03T01:38:37;7.67;;;4.63;;
14096;SDS011;7125;48.106;11.544;2022-11-03T01:41:05;5.43;;;3.73;;
14096;SDS011;7125;48.106;11.544;2022-11-03T01:43:36;5.63;;;4.17;;
14096;SDS011;7125;48.106;11.544;2022-11-03T01:46:05;6.43;;;5.00;;
14096;SDS011;7125;48.106;11.544;2022-11-03T01:48:38;7.83;;;4.50;;
14096;SDS011;7125;48.106;11.544;2022-11-03T01:51:08;7.30;;;4.83;;
14096;SDS011;7125;48.106;11.544;2022-11-03T01:53:38;6.70;;;4.40;;
14096;SDS011;7125;48.106;11.544;2022-11-03T01:56:07;6.47;;;4.47;;
14096;SDS011;7125;48.106;11.544;2022-11-03T01:58:40;7.13;;;4.07;;
14096;SDS011;7125;48.106;11.544;2022-11-03T02:01:09;7.23;;;4.13;;
14096;SDS011;7125;48.106;11.544;2022-11-03T02:03:37;5.90;;;4.70;;
14096;SDS011;7125;48.106;11.544;2022-11-03T02:06:06;5.53;;;4.10;;
14096;SDS011;7125;48.106;11.544;2022-11-03T02:08:35;4.97;;;4.43;;
14096;SDS011;7125;48.106;11.544;2022-11-03T02:11:06;9.07;;;4.30;;
14096;SDS011;7125;48.106;11.544;2022-11-03T02:13:48;4.80;;;4.03;;
14096;SDS011;7125;48.106;11.544;2022-11-03T02:16:16;5.20;;;3.33;;
14096;SDS011;7125;48.106;11.544;2022-11-03T02:18:45;6.40;;;4.70;;
14096;SDS011;7125;48.106;11.544;2022-11-03T02:21:15;5.03;;;3.93;;
14096;SDS011;7125;48.106;11.544;2022-11-03T02:23:52;4.50;;;3.93;;
14096;SDS011;7125;48.106;11.544;2022-11-03T02:26:25;6.60;;;4.37;;
14096;SDS011;7125;48.106;11.544;2022-11-03T02:28:53;6.83;;;4.63;;
14096;SDS011;7125;48.106;11.544;2022-11-03T02:31:22;5.00;;;4.03;;
14096;SDS011;7125;48.106;11.544;2022-11-03T02:33:56;9.77;;;4.43;;
14096;SDS011;7125;48.106;11.544;2022-11-03T02:36:30;6.57;;;4.40;;
14096;SDS011;7125;48.106;11.544;2022-11-03T02:39:02;6.37;;;4.77;;
14096;SDS011;7125;48.106;11.544;2022-11-03T02:41:36;6.83;;;4.40;;
14096;SDS011;7125;48.106;11.544;2022-11-03T02:44:04;4.90;;;4.40;;
14096;SDS011;7125;48.106;11.544;2022-11-03T02:46:33;10.10;;;4.17;;
14096;SDS011;7125;48.106;11.544;2022-11-03T02:49:01;5.53;;;4.77;;
14096;SDS011;7125;48.106;11.544;2022-11-03T02:51:28;4.23;;;3.43;;
14096;SDS011;7125;48.106;11.544;2022-11-03T02:53:59;6.07;;;3.77;;
14096;SDS011;7125;48.106;11.544;2022-11-03T02:56:32;6.77;;;3.83;;
14096;SDS011;7125;48.106;11.544;2022-11-03T02:59:05;4.13;;;3.77;;
14096;SDS011;7125;48.106;11.544;2022-11-03T03:01:35;6.17;;;4.17;;
14096;SDS011;7125;48.106;11.544;2022-11-03T03:04:13;5.30;;;3.90;;
14096;SDS011;7125;48.106;11.544;2022-11-03T03:06:43;5.13;;;4.63;;
14096;SDS011;7125;48.106;11.544;2022-11-03T03:09:17;7.27;;;4.13;;
14096;SDS011;7125;48.106;11.544;2022-11-03T03:11:46;8.57;;;3.97;;
14096;SDS011;7125;48.106;11.544;2022-11-03T03:14:19;4.67;;;4.20;;
14096;SDS011;7125;48.106;11.544;2022-11-03T03:16:50;4.73;;;3.73;;
14096;SDS011;7125;48.106;11.544;2022-11-03T03:19:27;6.53;;;3.80;;
14096;SDS011;7125;48.106;11.544;2022-11-03T03:24:50;3.97;;;3.40;;
14096;SDS011;7125;48.106;11.544;2022-11-03T03:27:22;6.80;;;4.77;;
14096;SDS011;7125;48.106;11.544;2022-11-03T03:29:53;5.03;;;3.93;;
14096;SDS011;7125;48.106;11.544;2022-11-03T03:32:24;7.00;;;4.07;;
14096;SDS011;7125;48.106;11.544;2022-11-03T03:34:53;6.57;;;3.73;;
14096;SDS011;7125;48.106;11.544;2022-11-03T03:37:22;4.20;;;3.43;;
14096;SDS011;7125;48.106;11.544;2022-11-03T03:39:52;5.77;;;4.07;;
14096;SDS011;7125;48.106;11.544;2022-11-03T03:42:26;4.60;;;4.20;;
14096;SDS011;7125;48.106;11.544;2022-11-03T03:44:57;9.13;;;5.13;;
14096;SDS011;7125;48.106;11.544;2022-11-03T03:47:26;5.67;;;3.97;;
14096;SDS011;7125;48.106;11.544;2022-11-03T03:49:54;7.67;;;4.83;;
14096;SDS011;7125;48.106;11.544;2022-11-03T03:52:22;7.10;;;5.23;;
14096;SDS011;7125;48.106;11.544;2022-11-03T03:54:49;5.23;;;4.40;;
14096;SDS011;7125;48.106;11.544;2022-11-03T03:57:17;5.50;;;3.90;;
14096;SDS011;7125;48.106;11.544;2022-11-03T03:59:46;6.53;;;4.83;;
14096;SDS011;7125;48.106;11.544;2022-11-03T04:02:14;5.90;;;4.47;;
14096;SDS011;7125;48.106;11.544;2022-11-03T04:04:41;7.87;;;4.40;;
14096;SDS011;7125;48.106;11.544;2022-11-03T04:07:08;7.77;;;4.00;;
14096;SDS011;7125;48.106;11.544;2022-11-03T04:09:52;5.67;;;5.00;;
14096;SDS011;7125;48.106;11.544;2022-11-03T04:12:19;7.40;;;5.13;;
14096;SDS011;7125;48.106;11.544;2022-11-03T04:15:04;10.17;;;4.97;;
14096;SDS011;7125;48.106;11.544;2022-11-03T04:17:50;6.07;;;4.37;;
14096;SDS011;7125;48.106;11.544;2022-11-03T04:20:34;8.13;;;4.17;;
14096;SDS011;7125;48.106;11.544;2022-11-03T04:23:18;8.47;;;4.07;;
14096;SDS011;7125;48.106;11.544;2022-11-03T04:25:46;6.97;;;5.07;;
14096;SDS011;7125;48.106;11.544;2022-11-03T04:28:15;8.83;;;4.40;;
14096;SDS011;7125;48.106;11.544;2022-11-03T04:30:42;5.20;;;4.40;;
14096;SDS011;7125;48.106;11.544;2022-11-03T04:33:13;5.97;;;4.30;;
14096;SDS011;7125;48.106;11.544;2022-11-03T04:35:41;4.67;;;4.20;;
14096;SDS011;7125;48.106;11.544;2022-11-03T04:38:17;5.80;;;4.47;;
14096;SDS011;7125;48.106;11.544;2022-11-03T04:40:48;4.17;;;3.80;;
14096;SDS011;7125;48.106;11.544;2022-11-03T04:43:18;6.80;;;4.53;;
14096;SDS011;7125;48.106;11.544;2022-11-03T04:45:46;6.57;;;3.90;;
14096;SDS011;7125;48.106;11.544;2022-11-03T04:48:17;7.07;;;4.03;;
14096;SDS011;7125;48.106;11.544;2022-11-03T04:50:48;5.10;;;4.37;;
14096;SDS011;7125;48.106;11.544;2022-11-03T04:53:18;6.93;;;4.77;;
14096;SDS011;7125;48.106;11.544;2022-11-03T04:55:48;7.10;;;4.90;;
14096;SDS011;7125;48.106;11.544;2022-11-03T04:58:18;10.13;;;5.77;;
14096;SDS011;7125;48.106;11.544;2022-11-03T05:00:46;9.50;;;5.40;;
14096;SDS011;7125;48.106;11.544;2022-11-03T05:03:18;8.87;;;5.90;;
14096;SDS011;7125;48.106;11.544;2022-11-03T05:05:47;11.17;;;6.47;;
14096;SDS011;7125;48.106;11.544;2022-11-03T05:08:14;8.67;;;5.20;;
14096;SDS011;7125;48.106;11.544;2022-11-03T05:10:43;9.60;;;6.17;;
14096;SDS011;7125;48.106;11.544;2022-11-03T05:13:14;11.40;;;6.33;;
14096;SDS011;7125;48.106;11.544;2022-11-03T05:15:44;11.27;;;7.50;;
14096;SDS011;7125;48.106;11.544;2022-11-03T05:18:15;13.57;;;7.37;;
14096;SDS011;7125;48.106;11.544;2022-11-03T05:20:48;14.50;;;8.90;;
14096;SDS011;7125;48.106;11.544;2022-11-03T05:23:18;23.27;;;9.30;;
14096;SDS011;7125;48.106;11.544;2022-11-03T05:25:47;21.33;;;8.97;;
14096;SDS011;7125;48.106;11.544;2022-11-03T05:28:19;17.37;;;8.83;;
14096;SDS011;7125;48.106;11.544;2022-11-03T05:30:49;11.47;;;8.67;;
14096;SDS011;7125;48.106;11.544;2022-11-03T05:33:23;19.73;;;9.33;;
14096;SDS011;7125;48.106;11.544;2022-11-03T05:35:52;10.87;;;7.63;;
14096;SDS011;7125;48.106;11.544;2022-11-03T05:38:20;19.17;;;8.00;;
14096;SDS011;7125;48.106;11.544;2022-11-03T05:40:49;12.27;;;7.67;;
14096;SDS011;7125;48.106;11.544;2022-11-03T05:43:18;31.20;;;8.53;;
14096;SDS011;7125;48.106;11.544;2022-11-03T05:45:46;20.10;;;8.23;;
14096;SDS011;7125;48.106;11.544;2022-11-03T05:48:21;13.60;;;6.97;;
14096;SDS011;7125;48.106;11.544;2022-11-03T05:50:55;21.80;;;7.80;;
14096;SDS011;7125;48.106;11.544;2022-11-03T05:53:26;18.27;;;7.03;;
14096;SDS011;7125;48.106;11.544;2022-11-03T05:55:56;22.73;;;7.97;;
14096;SDS011;7125;48.106;11.544;2022-11-03T05:58:26;12.30;;;7.53;;
14096;SDS011;7125;48.106;11.544;2022-11-03T06:00:56;6.90;;;6.27;;
14096;SDS011;7125;48.106;11.544;2022-11-03T06:03:30;8.77;;;7.07;;
14096;SDS011;7125;48.106;11.544;2022-11-03T06:06:01;29.97;;;9.27;;
14096;SDS011;7125;48.106;11.544;2022-11-03T06:08:36;24.43;;;8.77;;
14096;SDS011;7125;48.106;11.544;2022-11-03T06:11:04;25.97;;;9.60;;
14096;SDS011;7125;48.106;11.544;2022-11-03T06:13:32;17.73;;;8.90;;
14096;SDS011;7125;48.106;11.544;2022-11-03T06:16:01;25.80;;;11.03;;
14096;SDS011;7125;48.106;11.544;2022-11-03T06:18:32;19.80;;;9.67;;
14096;SDS011;7125;48.106;11.544;2022-11-03T06:21:05;19.63;;;10.30;;
14096;SDS011;7125;48.106;11.544;2022-11-03T06:23:34;12.80;;;9.33;;
14096;SDS011;7125;48.106;11.544;2022-11-03T06:26:02;9.23;;;8.27;;
14096;SDS011;7125;48.106;11.544;2022-11-03T06:28:33;13.43;;;8.33;;
14096;SDS011;7125;48.106;11.544;2022-11-03T06:31:03;13.00;;;8.87;;
14096;SDS011;7125;48.106;11.544;2022-11-03T06:33:34;15.87;;;9.60;;
14096;SDS011;7125;48.106;11.544;2022-11-03T06:36:07;32.20;;;10.87;;
14096;SDS011;7125;48.106;11.544;2022-11-03T06:38:38;30.97;;;10.27;;
14096;SDS011;7125;48.106;11.544;2022-11-03T06:41:06;14.97;;;9.10;;
14096;SDS011;7125;48.106;11.544;2022-11-03T06:43:43;17.33;;;9.03;;
14096;SDS011;7125;48.106;11.544;2022-11-03T06:46:11;23.90;;;9.77;;
14096;SDS011;7125;48.106;11.544;2022-11-03T06:48:45;19.77;;;9.10;;
14096;SDS011;7125;48.106;11.544;2022-11-03T06:51:17;34.67;;;10.60;;
14096;SDS011;7125;48.106;11.544;2022-11-03T06:53:46;8.87;;;7.27;;
14096;SDS011;7125;48.106;11.544;2022-11-03T06:56:14;12.33;;;8.40;;
14096;SDS011;7125;48.106;11.544;2022-11-03T06:58:45;10.20;;;8.47;;
14096;SDS011;7125;48.106;11.544;2022-11-03T07:01:14;8.40;;;7.60;;
14096;SDS011;7125;48.106;11.544;2022-11-03T07:03:47;17.57;;;9.53;;
14096;SDS011;7125;48.106;11.544;2022-11-03T07:06:17;11.90;;;9.03;;
14096;SDS011;7125;48.106;11.544;2022-11-03T07:08:48;9.43;;;8.57;;
14096;SDS011;7125;48.106;11.544;2022-11-03T07:11:18;21.80;;;12.40;;
14096;SDS011;7125;48.106;11.544;2022-11-03T07:13:47;18.10;;;9.00;;
14096;SDS011;7125;48.106;11.544;2022-11-03T07:16:18;10.90;;;8.60;;
14096;SDS011;7125;48.106;11.544;2022-11-03T07:18:54;9.37;;;8.47;;
14096;SDS011;7125;48.106;11.544;2022-11-03T07:21:24;8.57;;;7.67;;
14096;SDS011;7125;48.106;11.544;2022-11-03T07:24:00;7.47;;;6.80;;
14096;SDS011;7125;48.106;11.544;2022-11-03T07:26:31;7.50;;;6.83;;
14096;SDS011;7125;48.106;11.544;2022-11-03T07:28:58;8.20;;;7.50;;
14096;SDS011;7125;48.106;11.544;2022-11-03T07:31:27;9.30;;;7.30;;
14096;SDS011;7125;48.106;11.544;2022-11-03T07:33:57;8.97;;;7.83;;
14096;SDS011;7125;48.106;11.544;2022-11-03T07:36:25;8.37;;;7.57;;
14096;SDS011;7125;48.106;11.544;2022-11-03T07:38:56;7.17;;;6.50;;
14096;SDS011;7125;48.106;11.544;2022-11-03T07:41:27;8.97;;;7.80;;
14096;SDS011;7125;48.106;11.544;2022-11-03T07:43:58;8.43;;;7.63;;
14096;SDS011;7125;48.106;11.544;2022-11-03T07:46:27;7.63;;;6.90;;
14096;SDS011;7125;48.106;11.544;2022-11-03T07:48:55;7.53;;;6.83;;
14096;SDS011;7125;48.106;11.544;2022-11-03T07:51:26;7.60;;;6.90;;
14096;SDS011;7125;48.106;11.544;2022-11-03T07:53:55;8.23;;;7.43;;
14096;SDS011;7125;48.106;11.544;2022-11-03T07:56:28;8.60;;;7.40;;
14096;SDS011;7125;48.106;11.544;2022-11-03T07:58:58;8.00;;;7.23;;
14096;SDS011;7125;48.106;11.544;2022-11-03T08:01:32;7.53;;;6.83;;
14096;SDS011;7125;48.106;11.544;2022-11-03T08:04:04;8.33;;;7.33;;
14096;SDS011;7125;48.106;11.544;2022-11-03T08:06:33;8.50;;;7.70;;
14096;SDS011;7125;48.106;11.544;2022-11-03T08:09:00;8.03;;;6.83;;
14096;SDS011;7125;48.106;11.544;2022-11-03T08:11:27;7.63;;;6.93;;
14096;SDS011;7125;48.106;11.544;2022-11-03T08:13:54;6.77;;;6.10;;
14096;SDS011;7125;48.106;11.544;2022-11-03T08:16:21;6.53;;;5.93;;
14096;SDS011;7125;48.106;11.544;2022-11-03T08:18:47;9.23;;;6.47;;
14096;SDS011;7125;48.106;11.544;2022-11-03T08:21:16;8.27;;;6.20;;
14096;SDS011;7125;48.106;11.544;2022-11-03T08:23:44;7.77;;;6.97;;
14096;SDS011;7125;48.106;11.544;2022-11-03T08:26:11;7.47;;;6.77;;
14096;SDS011;7125;48.106;11.544;2022-11-03T08:28:39;7.87;;;7.07;;
14096;SDS011;7125;48.106;11.544;2022-11-03T08:31:06;7.73;;;7.07;;
14096;SDS011;7125;48.106;11.544;2022-11-03T08:33:33;8.27;;;7.57;;
14096;SDS011;7125;48.106;11.544;2022-11-03T08:36:01;6.83;;;6.23;;
14096;SDS011;7125;48.106;11.544;2022-11-03T08:38:31;8.53;;;7.73;;
14096;SDS011;7125;48.106;11.544;2022-11-03T08:40:58;8.33;;;7.63;;
14096;SDS011;7125;48.106;11.544;2022-11-03T08:43:26;15.40;;;7.47;;
14096;SDS011;7125;48.106;11.544;2022-11-03T08:45:54;8.50;;;7.43;;
14096;SDS011;7125;48.106;11.544;2022-11-03T08:48:23;6.83;;;6.13;;
14096;SDS011;7125;48.106;11.544;2022-11-03T08:50:52;8.27;;;7.47;;
14096;SDS011;7125;48.106;11.544;2022-11-03T08:53:20;10.03;;;7.30;;
14096;SDS011;7125;48.106;11.544;2022-11-03T08:55:49;8.17;;;7.37;;
14096;SDS011;7125;48.106;11.544;2022-11-03T08:58:17;8.17;;;6.90;;
14096;SDS011;7125;48.106;11.544;2022-11-03T09:00:45;9.73;;;7.07;;
14096;SDS011;7125;48.106;11.544;2022-11-03T09:03:12;7.10;;;6.33;;
14096;SDS011;7125;48.106;11.544;2022-11-03T09:05:39;6.83;;;6.20;;
14096;SDS011;7125;48.106;11.544;2022-11-03T09:08:06;6.87;;;6.23;;
14096;SDS011;7125;48.106;11.544;2022-11-03T09:10:33;9.70;;;5.90;;
14096;SDS011;7125;48.106;11.544;2022-11-03T09:13:02;6.50;;;5.70;;
14096;SDS011;7125;48.106;11.544;2022-11-03T09:15:29;6.57;;;5.87;;
14096;SDS011;7125;48.106;11.544;2022-11-03T09:17:57;6.40;;;5.80;;
14096;SDS011;7125;48.106;11.544;2022-11-03T09:20:24;8.87;;;5.27;;
14096;SDS011;7125;48.106;11.544;2022-11-03T09:22:52;7.57;;;5.37;;
14096;SDS011;7125;48.106;11.544;2022-11-03T09:25:19;5.80;;;4.67;;
14096;SDS011;7125;48.106;11.544;2022-11-03T09:27:46;5.97;;;5.30;;
14096;SDS011;7125;48.106;11.544;2022-11-03T09:30:16;9.47;;;6.10;;
14096;SDS011;7125;48.106;11.544;2022-11-03T09:32:43;6.37;;;4.87;;
14096;SDS011;7125;48.106;11.544;2022-11-03T09:35:13;5.93;;;5.37;;
14096;SDS011;7125;48.106;11.544;2022-11-03T09:37:41;8.30;;;4.87;;
14096;SDS011;7125;48.106;11.544;2022-11-03T09:40:08;7.20;;;5.97;;
14096;SDS011;7125;48.106;11.544;2022-11-03T09:42:36;9.30;;;5.47;;
14096;SDS011;7125;48.106;11.544;2022-11-03T09:45:05;7.70;;;5.77;;
14096;SDS011;7125;48.106;11.544;2022-11-03T09:47:36;9.07;;;6.03;;
14096;SDS011;7125;48.106;11.544;2022-11-03T09:50:09;9.40;;;5.53;;
14096;SDS011;7125;48.106;11.544;2022-11-03T09:52:38;8.13;;;4.93;;
14096;SDS011;7125;48.106;11.544;2022-11-03T09:55:10;7.43;;;5.17;;
14096;SDS011;7125;48.106;11.544;2022-11-03T09:57:40;6.13;;;4.83;;
14096;SDS011;7125;48.106;11.544;2022-11-03T10:00:12;8.30;;;5.60;;
14096;SDS011;7125;48.106;11.544;2022-11-03T10:02:47;7.63;;;4.43;;
14096;SDS011;7125;48.106;11.544;2022-11-03T10:05:15;6.83;;;4.93;;
14096;SDS011;7125;48.106;11.544;2022-11-03T10:07:48;6.57;;;4.90;;
14096;SDS011;7125;48.106;11.544;2022-11-03T10:10:16;5.07;;;3.87;;
14096;SDS011;7125;48.106;11.544;2022-11-03T10:12:45;6.43;;;3.93;;
14096;SDS011;7125;48.106;11.544;2022-11-03T10:15:14;6.57;;;3.93;;
14096;SDS011;7125;48.106;11.544;2022-11-03T10:17:42;7.23;;;3.90;;
14096;SDS011;7125;48.106;11.544;2022-11-03T10:20:12;5.83;;;3.60;;
14096;SDS011;7125;48.106;11.544;2022-11-03T10:22:42;6.70;;;4.13;;
14096;SDS011;7125;48.106;11.544;2022-11-03T10:25:32;6.33;;;4.20;;
14096;SDS011;7125;48.106;11.544;2022-11-03T10:30:47;7.40;;;3.70;;
14096;SDS011;7125;48.106;11.544;2022-11-03T10:33:26;6.90;;;3.13;;
14096;SDS011;7125;48.106;11.544;2022-11-03T10:35:57;4.10;;;3.40;;
14096;SDS011;7125;48.106;11.544;2022-11-03T10:38:25;6.53;;;3.23;;
14096;SDS011;7125;48.106;11.544;2022-11-03T10:40:55;5.13;;;3.13;;
14096;SDS011;7125;48.106;11.544;2022-11-03T10:43:35;7.83;;;3.73;;
14096;SDS011;7125;48.106;11.544;2022-11-03T10:46:12;5.60;;;3.37;;
14096;SDS011;7125;48.106;11.544;2022-11-03T10:48:42;7.10;;;2.70;;
14096;SDS011;7125;48.106;11.544;2022-11-03T10:51:12;8.13;;;3.30;;
14096;SDS011;7125;48.106;11.544;2022-11-03T10:53:42;4.03;;;3.10;;
14096;SDS011;7125;48.106;11.544;2022-11-03T10:56:09;3.40;;;3.10;;
14096;SDS011;7125;48.106;11.544;2022-11-03T10:58:36;6.77;;;2.80;;
14096;SDS011;7125;48.106;11.544;2022-11-03T11:01:04;15.63;;;5.07;;
14096;SDS011;7125;48.106;11.544;2022-11-03T11:03:34;4.80;;;3.90;;
14096;SDS011;7125;48.106;11.544;2022-11-03T11:06:16;5.20;;;3.13;;
14096;SDS011;7125;48.106;11.544;2022-11-03T11:08:45;6.87;;;3.07;;
14096;SDS011;7125;48.106;11.544;2022-11-03T11:11:13;6.87;;;3.17;;
14096;SDS011;7125;48.106;11.544;2022-11-03T11:13:41;5.37;;;4.20;;
14096;SDS011;7125;48.106;11.544;2022-11-03T11:19:09;7.40;;;3.27;;
14096;SDS011;7125;48.106;11.544;2022-11-03T11:24:54;4.93;;;3.10;;
14096;SDS011;7125;48.106;11.544;2022-11-03T11:33:26;7.23;;;3.20;;
14096;SDS011;7125;48.106;11.544;2022-11-03T11:38:59;5.17;;;3.43;;
14096;SDS011;7125;48.106;11.544;2022-11-03T11:44:50;7.67;;;3.77;;
14096;SDS011;7125;48.106;11.544;2022-11-03T11:47:23;9.50;;;6.50;;
14096;SDS011;7125;48.106;11.544;2022-11-03T11:50:11;10.73;;;6.53;;
14096;SDS011;7125;48.106;11.544;2022-11-03T11:52:49;9.97;;;6.67;;
14096;SDS011;7125;48.106;11.544;2022-11-03T11:55:25;10.03;;;6.47;;
14096;SDS011;7125;48.106;11.544;2022-11-03T11:57:57;7.93;;;7.13;;
14096;SDS011;7125;48.106;11.544;2022-11-03T12:00:26;10.53;;;6.77;;
14096;SDS011;7125;48.106;11.544;2022-11-03T12:02:55;12.13;;;6.90;;
14096;SDS011;7125;48.106;11.544;2022-11-03T12:05:27;13.80;;;7.27;;
14096;SDS011;7125;48.106;11.544;2022-11-03T12:07:56;10.67;;;6.43;;
14096;SDS011;7125;48.106;11.544;2022-11-03T12:10:24;9.98;;;6.43;;
14096;SDS011;7125;48.106;11.544;2022-11-03T12:12:55;10.90;;;6.63;;
14096;SDS011;7125;48.106;11.544;2022-11-03T12:18:31;11.77;;;6.43;;
14096;SDS011;7125;48.106;11.544;2022-11-03T12:21:00;12.20;;;6.73;;
14096;SDS011;7125;48.106;11.544;2022-11-03T12:23:36;12.73;;;7.30;;
14096;SDS011;7125;48.106;11.544;2022-11-03T12:26:11;8.20;;;6.25;;
14096;SDS011;7125;48.106;11.544;2022-11-03T12:28:41;7.72;;;5.50;;
14096;SDS011;7125;48.106;11.544;2022-11-03T12:31:08;7.82;;;6.70;;
14096;SDS011;7125;48.106;11.544;2022-11-03T12:33:36;10.32;;;6.25;;
14096;SDS011;7125;48.106;11.544;2022-11-03T12:36:03;12.70;;;7.33;;
14096;SDS011;7125;48.106;11.544;2022-11-03T12:38:30;9.32;;;5.65;;
14096;SDS011;7125;48.106;11.544;2022-11-03T12:40:57;9.40;;;6.13;;
14096;SDS011;7125;48.106;11.544;2022-11-03T12:43:47;9.10;;;6.43;;
14096;SDS011;7125;48.106;11.544;2022-11-03T12:46:15;8.02;;;5.78;;
14096;SDS011;7125;48.106;11.544;2022-11-03T12:48:43;8.20;;;6.35;;
14096;SDS011;7125;48.106;11.544;2022-11-03T12:51:12;10.97;;;6.63;;
14096;SDS011;7125;48.106;11.544;2022-11-03T12:53:40;8.80;;;6.40;;
14096;SDS011;7125;48.106;11.544;2022-11-03T12:56:07;7.33;;;5.87;;
14096;SDS011;7125;48.106;11.544;2022-11-03T12:58:35;8.02;;;6.13;;
14096;SDS011;7125;48.106;11.544;2022-11-03T13:01:04;10.77;;;5.93;;
14096;SDS011;7125;48.106;11.544;2022-11-03T13:03:33;7.20;;;6.05;;
14096;SDS011;7125;48.106;11.544;2022-11-03T13:06:02;9.98;;;6.47;;
14096;SDS011;7125;48.106;11.544;2022-11-03T13:08:34;8.40;;;5.18;;
14096;SDS011;7125;48.106;11.544;2022-11-03T13:11:01;8.50;;;5.55;;
14096;SDS011;7125;48.106;11.544;2022-11-03T13:13:28;14.13;;;6.10;;
14096;SDS011;7125;48.106;11.544;2022-11-03T13:15:55;6.32;;;5.07;;
14096;SDS011;7125;48.106;11.544;2022-11-03T13:18:23;7.88;;;5.15;;
14096;SDS011;7125;48.106;11.544;2022-11-03T13:20:50;6.03;;;5.15;;
14096;SDS011;7125;48.106;11.544;2022-11-03T13:23:17;5.33;;;4.53;;
14096;SDS011;7125;48.106;11.544;2022-11-03T13:25:44;7.10;;;4.70;;
14096;SDS011;7125;48.106;11.544;2022-11-03T13:28:11;7.85;;;5.43;;
14096;SDS011;7125;48.106;11.544;2022-11-03T13:30:38;8.73;;;5.57;;
14096;SDS011;7125;48.106;11.544;2022-11-03T13:33:05;5.85;;;4.82;;
14096;SDS011;7125;48.106;11.544;2022-11-03T13:35:34;9.23;;;5.37;;
14096;SDS011;7125;48.106;11.544;2022-11-03T13:38:01;4.13;;;3.70;;
14096;SDS011;7125;48.106;11.544;2022-11-03T13:40:28;7.25;;;5.28;;
14096;SDS011;7125;48.106;11.544;2022-11-03T13:42:56;8.35;;;5.65;;
14096;SDS011;7125;48.106;11.544;2022-11-03T13:45:23;6.90;;;5.05;;
14096;SDS011;7125;48.106;11.544;2022-11-03T13:47:50;6.73;;;5.90;;
14096;SDS011;7125;48.106;11.544;2022-11-03T13:50:17;12.45;;;6.10;;
14096;SDS011;7125;48.106;11.544;2022-11-03T13:52:45;5.57;;;4.67;;
14096;SDS011;7125;48.106;11.544;2022-11-03T13:55:12;8.67;;;6.43;;
14096;SDS011;7125;48.106;11.544;2022-11-03T13:57:39;13.57;;;5.83;;
14096;SDS011;7125;48.106;11.544;2022-11-03T14:00:09;6.90;;;5.80;;
14096;SDS011;7125;48.106;11.544;2022-11-03T14:02:38;7.67;;;5.87;;
14096;SDS011;7125;48.106;11.544;2022-11-03T14:05:05;11.63;;;6.20;;
14096;SDS011;7125;48.106;11.544;2022-11-03T14:07:32;6.83;;;5.87;;
14096;SDS011;7125;48.106;11.544;2022-11-03T14:10:00;8.20;;;6.50;;
14096;SDS011;7125;48.106;11.544;2022-11-03T14:12:28;6.83;;;6.00;;
14096;SDS011;7125;48.106;11.544;2022-11-03T14:14:59;11.70;;;7.07;;
14096;SDS011;7125;48.106;11.544;2022-11-03T14:17:28;10.47;;;7.07;;
14096;SDS011;7125;48.106;11.544;2022-11-03T14:19:55;9.47;;;4.97;;
14096;SDS011;7125;48.106;11.544;2022-11-03T14:22:22;19.93;;;7.60;;
14096;SDS011;7125;48.106;11.544;2022-11-03T14:24:50;7.03;;;6.23;;
14096;SDS011;7125;48.106;11.544;2022-11-03T14:27:19;10.83;;;6.43;;
14096;SDS011;7125;48.106;11.544;2022-11-03T14:29:45;10.07;;;6.40;;
14096;SDS011;7125;48.106;11.544;2022-11-03T14:32:14;7.80;;;5.40;;
14096;SDS011;7125;48.106;11.544;2022-11-03T14:34:41;6.80;;;6.10;;
14096;SDS011;7125;48.106;11.544;2022-11-03T14:37:08;10.20;;;6.43;;
14096;SDS011;7125;48.106;11.544;2022-11-03T14:39:36;7.80;;;7.00;;
14096;SDS011;7125;48.106;11.544;2022-11-03T14:42:03;7.83;;;6.93;;
14096;SDS011;7125;48.106;11.544;2022-11-03T14:44:31;11.27;;;6.97;;
14096;SDS011;7125;48.106;11.544;2022-11-03T14:46:59;7.27;;;6.20;;
14096;SDS011;7125;48.106;11.544;2022-11-03T14:49:27;9.53;;;7.23;;
14096;SDS011;7125;48.106;11.544;2022-11-03T14:51:54;10.20;;;6.50;;
14096;SDS011;7125;48.106;11.544;2022-11-03T14:54:23;7.33;;;6.50;;
14096;SDS011;7125;48.106;11.544;2022-11-03T14:56:50;11.67;;;8.47;;
14096;SDS011;7125;48.106;11.544;2022-11-03T14:59:18;9.37;;;7.60;;
14096;SDS011;7125;48.106;11.544;2022-11-03T15:01:47;10.60;;;8.13;;
14096;SDS011;7125;48.106;11.544;2022-11-03T15:04:16;8.77;;;7.30;;
14096;SDS011;7125;48.106;11.544;2022-11-03T15:06:43;8.00;;;7.20;;
14096;SDS011;7125;48.106;11.544;2022-11-03T15:09:10;7.57;;;6.80;;
14096;SDS011;7125;48.106;11.544;2022-11-03T15:11:38;10.13;;;7.07;;
14096;SDS011;7125;48.106;11.544;2022-11-03T15:14:05;7.70;;;6.83;;
14096;SDS011;7125;48.106;11.544;2022-11-03T15:16:33;9.40;;;8.47;;
14096;SDS011;7125;48.106;11.544;2022-11-03T15:19:02;9.47;;;7.30;;
14096;SDS011;7125;48.106;11.544;2022-11-03T15:21:29;11.13;;;7.77;;
14096;SDS011;7125;48.106;11.544;2022-11-03T15:23:56;9.87;;;6.80;;
14096;SDS011;7125;48.106;11.544;2022-11-03T15:26:23;13.30;;;9.27;;
14096;SDS011;7125;48.106;11.544;2022-11-03T15:28:50;7.80;;;7.00;;